createdAt,value
2022-09-20T00:00:42.591Z,67.20
2022-09-20T00:01:44.864Z,67.21
2022-09-20T00:02:47.071Z,66.91
2022-09-20T00:03:54.384Z,67.00
2022-09-20T00:04:56.671Z,67.18
2022-09-20T00:06:01.944Z,67.12
2022-09-20T00:07:04.185Z,67.08
2022-09-20T00:08:09.099Z,67.23
2022-09-20T00:09:11.240Z,66.97
2022-09-20T00:10:14.209Z,67.04
2022-09-20T00:11:21.603Z,67.03
2022-09-20T00:12:24.138Z,67.15
2022-09-20T00:13:26.288Z,67.19
2022-09-20T00:14:28.417Z,67.21
2022-09-20T00:15:31.024Z,67.16
2022-09-20T00:16:36.479Z,67.13
2022-09-20T00:17:38.677Z,67.08
2022-09-20T00:18:41.561Z,67.33
2022-09-20T00:19:43.700Z,67.41
2022-09-20T00:20:47.265Z,67.19
2022-09-20T00:21:49.610Z,67.06
2022-09-20T00:22:51.831Z,67.18
2022-09-20T00:23:54.302Z,67.32
2022-09-20T00:24:56.462Z,67.32
2022-09-20T00:26:04.049Z,67.27
2022-09-20T00:27:06.290Z,67.35
2022-09-20T00:28:09.422Z,67.54
2022-09-20T00:29:12.957Z,67.66
2022-09-20T00:30:15.467Z,67.51
2022-09-20T00:31:19.261Z,67.54
2022-09-20T00:32:21.474Z,67.66
2022-09-20T00:33:45.514Z,67.60
2022-09-20T00:35:06.255Z,67.76
2022-09-20T00:36:08.435Z,67.70
2022-09-20T00:37:10.634Z,67.67
2022-09-20T00:38:16.107Z,67.69
2022-09-20T00:39:18.304Z,67.56
2022-09-20T00:40:22.759Z,67.85
2022-09-20T00:41:25.467Z,67.98
2022-09-20T00:42:29.930Z,67.95
2022-09-20T00:43:44.800Z,67.97
2022-09-20T00:45:03.633Z,67.91
2022-09-20T00:46:16.624Z,68.12
2022-09-20T00:47:33.830Z,68.17
2022-09-20T00:48:36.005Z,68.11
2022-09-20T00:49:38.653Z,68.16
2022-09-20T00:50:53.711Z,68.25
2022-09-20T00:52:00.681Z,68.22
2022-09-20T00:53:09.233Z,68.39
2022-09-20T00:54:19.529Z,68.13
2022-09-20T00:55:22.888Z,68.12
2022-09-20T00:56:29.820Z,68.05
2022-09-20T00:57:35.397Z,68.05
2022-09-20T00:58:41.487Z,68.02
2022-09-20T00:59:48.058Z,68.23
2022-09-20T01:00:52.871Z,68.06
2022-09-20T01:02:18.099Z,68.10
2022-09-20T01:03:23.513Z,68.23
2022-09-20T01:04:35.949Z,68.15
2022-09-20T01:05:40.267Z,68.21
2022-09-20T01:06:46.090Z,68.22
2022-09-20T01:07:51.738Z,68.13
2022-09-20T01:08:56.579Z,68.13
2022-09-20T01:10:01.861Z,68.17
2022-09-20T01:11:04.367Z,68.15
2022-09-20T01:12:13.707Z,68.19
2022-09-20T01:13:15.951Z,68.18
2022-09-20T01:14:22.302Z,68.19
2022-09-20T01:15:28.056Z,68.07
2022-09-20T01:16:32.825Z,68.12
2022-09-20T01:17:37.791Z,68.29
2022-09-20T01:18:44.485Z,68.33
2022-09-20T01:20:10.601Z,68.35
2022-09-20T01:21:14.207Z,68.21
2022-09-20T01:22:25.294Z,68.10
2022-09-20T01:23:49.341Z,68.08
2022-09-20T01:24:59.073Z,68.06
2022-09-20T01:26:46.453Z,68.04
2022-09-20T01:27:52.384Z,68.28
2022-09-20T01:29:10.217Z,68.04
2022-09-20T01:30:18.453Z,68.16
2022-09-20T01:31:33.616Z,68.27
2022-09-20T01:33:00.760Z,68.29
2022-09-20T01:34:11.322Z,68.32
2022-09-20T01:35:16.733Z,68.50
2022-09-20T01:36:31.733Z,68.38
2022-09-20T01:37:52.621Z,68.22
2022-09-20T01:39:30.973Z,68.22
2022-09-20T01:40:43.281Z,68.29
2022-09-20T01:41:58.878Z,68.37
2022-09-20T01:43:26.651Z,68.46
2022-09-20T01:45:01.009Z,68.47
2022-09-20T01:46:31.583Z,68.38
2022-09-20T01:48:03.753Z,68.43
2022-09-20T01:49:31.015Z,68.41
2022-09-20T01:51:06.051Z,68.34
2022-09-20T01:52:11.202Z,68.43
2022-09-20T01:53:47.491Z,68.51
2022-09-20T01:54:58.922Z,68.55
2022-09-20T01:56:33.633Z,68.43
2022-09-20T01:58:01.481Z,68.55
2022-09-20T01:59:41.641Z,68.41
2022-09-20T02:01:23.505Z,68.32
2022-09-20T02:02:53.598Z,68.36
2022-09-20T02:04:30.242Z,68.34
2022-09-20T02:05:55.651Z,68.53
2022-09-20T02:07:22.515Z,68.36
2022-09-20T02:08:54.938Z,68.33
2022-09-20T02:10:27.608Z,68.33
2022-09-20T02:11:44.964Z,68.22
2022-09-20T02:12:56.065Z,68.33
2022-09-20T02:14:27.643Z,68.40
2022-09-20T02:16:07.179Z,68.29
2022-09-20T02:17:14.082Z,68.30
2022-09-20T02:18:37.354Z,68.21
2022-09-20T02:20:18.689Z,68.37
2022-09-20T02:21:33.424Z,68.47
2022-09-20T02:22:53.264Z,68.40
2022-09-20T02:24:11.971Z,68.26
2022-09-20T02:25:57.905Z,68.32
2022-09-20T02:27:24.096Z,68.31
2022-09-20T02:28:31.985Z,68.33
2022-09-20T02:29:50.299Z,68.48
2022-09-20T02:31:21.777Z,68.65
2022-09-20T02:32:46.021Z,68.49
2022-09-20T02:34:08.395Z,68.47
2022-09-20T02:35:19.851Z,68.44
2022-09-20T02:36:45.002Z,68.52
2022-09-20T02:37:57.433Z,68.32
2022-09-20T02:39:10.798Z,68.29
2022-09-20T02:40:31.802Z,68.34
2022-09-20T02:41:47.320Z,68.37
2022-09-20T02:43:10.161Z,68.22
2022-09-20T02:44:49.812Z,68.28
2022-09-20T02:46:18.047Z,68.08
2022-09-20T02:47:40.311Z,68.21
2022-09-20T02:48:48.624Z,68.29
2022-09-20T02:49:55.747Z,68.04
2022-09-20T02:51:21.497Z,68.08
2022-09-20T02:52:49.288Z,68.13
2022-09-20T02:54:00.629Z,68.12
2022-09-20T02:55:28.745Z,68.17
2022-09-20T02:56:47.740Z,68.04
2022-09-20T02:58:11.632Z,68.01
2022-09-20T02:59:47.316Z,68.03
2022-09-20T03:01:07.292Z,68.25
2022-09-20T03:02:16.357Z,67.98
2022-09-20T03:03:43.329Z,68.06
2022-09-20T03:05:33.669Z,67.87
2022-09-20T03:06:41.750Z,67.91
2022-09-20T03:08:04.620Z,67.83
2022-09-20T03:09:29.492Z,67.76
2022-09-20T03:10:50.491Z,67.98
2022-09-20T03:12:20.027Z,67.90
2022-09-20T03:13:30.933Z,67.72
2022-09-20T03:14:38.518Z,67.81
2022-09-20T03:16:07.120Z,67.95
2022-09-20T03:17:42.472Z,67.77
2022-09-20T03:19:00.328Z,67.90
2022-09-20T03:20:33.469Z,67.80
2022-09-20T03:21:59.847Z,67.89
2022-09-20T03:23:10.932Z,68.00
2022-09-20T03:25:01.350Z,68.06
2022-09-20T03:26:30.712Z,67.87
2022-09-20T03:27:46.109Z,67.90
2022-09-20T03:29:25.890Z,67.86
2022-09-20T03:30:42.886Z,67.82
2022-09-20T03:32:13.580Z,68.04
2022-09-20T03:33:43.912Z,67.91
2022-09-20T03:35:06.844Z,68.11
2022-09-20T03:36:47.330Z,67.97
2022-09-20T03:38:08.430Z,68.15
2022-09-20T03:39:22.753Z,68.08
2022-09-20T03:40:55.994Z,68.14
2022-09-20T03:42:19.909Z,68.00
2022-09-20T03:43:33.450Z,68.06
2022-09-20T03:45:02.312Z,68.16
2022-09-20T03:46:19.771Z,68.36
2022-09-20T03:48:02.872Z,68.31
2022-09-20T03:49:42.009Z,68.29
2022-09-20T03:51:06.017Z,68.35
2022-09-20T03:52:19.470Z,68.55
2022-09-20T03:53:42.327Z,68.58
2022-09-20T03:55:27.867Z,68.82
2022-09-20T03:57:05.147Z,68.80
2022-09-20T03:58:13.244Z,68.63
2022-09-20T03:59:32.040Z,68.91
2022-09-20T04:00:46.121Z,68.68
2022-09-20T04:02:06.868Z,68.97
2022-09-20T04:03:28.798Z,69.12
2022-09-20T04:04:57.597Z,69.12
2022-09-20T04:06:29.869Z,69.13
2022-09-20T04:07:40.726Z,69.08
2022-09-20T04:09:07.535Z,69.15
2022-09-20T04:10:33.844Z,69.24
2022-09-20T04:11:51.852Z,69.42
2022-09-20T04:13:03.344Z,69.30
2022-09-20T04:14:23.750Z,69.45
2022-09-20T04:15:46.283Z,69.52
2022-09-20T04:17:01.868Z,69.59
2022-09-20T04:18:19.534Z,69.42
2022-09-20T04:19:49.276Z,69.24
2022-09-20T04:20:59.061Z,69.49
2022-09-20T04:22:02.330Z,69.36
2022-09-20T04:23:18.004Z,69.43
2022-09-20T04:24:25.611Z,69.50
2022-09-20T04:25:40.698Z,69.48
2022-09-20T04:26:50.427Z,69.50
2022-09-20T04:28:02.089Z,69.28
2022-09-20T04:29:31.875Z,69.56
2022-09-20T04:30:44.093Z,69.50
2022-09-20T04:31:54.468Z,69.46
2022-09-20T04:33:02.226Z,69.39
2022-09-20T04:34:10.911Z,69.20
2022-09-20T04:35:46.917Z,69.43
2022-09-20T04:37:05.115Z,69.34
2022-09-20T04:38:15.268Z,69.28
2022-09-20T04:39:51.660Z,69.25
2022-09-20T04:41:31.994Z,69.26
2022-09-20T04:42:42.862Z,69.49
2022-09-20T04:43:58.483Z,69.29
2022-09-20T04:45:33.283Z,69.33
2022-09-20T04:47:13.168Z,69.43
2022-09-20T04:48:30.256Z,69.19
2022-09-20T04:49:55.888Z,69.30
2022-09-20T04:51:28.971Z,69.17
2022-09-20T04:53:04.722Z,69.14
2022-09-20T04:54:37.168Z,69.05
2022-09-20T04:56:03.186Z,69.05
2022-09-20T04:57:34.476Z,69.21
2022-09-20T04:59:04.486Z,69.06
2022-09-20T05:00:16.289Z,69.20
2022-09-20T05:02:10.627Z,69.08
2022-09-20T05:03:37.622Z,69.28
2022-09-20T05:05:01.947Z,69.01
2022-09-20T05:06:24.101Z,69.07
2022-09-20T05:07:38.448Z,69.17
2022-09-20T05:09:14.803Z,68.98
2022-09-20T05:10:50.006Z,69.24
2022-09-20T05:12:15.350Z,69.08
2022-09-20T05:13:57.414Z,69.23
2022-09-20T05:15:21.160Z,69.29
2022-09-20T05:16:36.041Z,69.25
2022-09-20T05:17:54.358Z,69.27
2022-09-20T05:19:07.595Z,69.40
2022-09-20T05:20:46.995Z,69.45
2022-09-20T05:22:16.516Z,69.38
2022-09-20T05:23:58.511Z,69.43
2022-09-20T05:25:28.288Z,69.35
2022-09-20T05:26:52.057Z,69.38
2022-09-20T05:28:25.076Z,69.48
2022-09-20T05:29:32.315Z,69.61
2022-09-20T05:30:43.776Z,69.62
2022-09-20T05:32:07.662Z,69.63
2022-09-20T05:33:23.944Z,69.54
2022-09-20T05:34:54.677Z,69.60
2022-09-20T05:36:34.924Z,69.61
2022-09-20T05:37:52.143Z,69.58
2022-09-20T05:39:31.852Z,69.49
2022-09-20T05:40:51.575Z,69.66
2022-09-20T05:42:02.741Z,69.54
2022-09-20T05:43:28.860Z,69.56
2022-09-20T05:44:53.236Z,69.57
2022-09-20T05:45:58.492Z,69.76
2022-09-20T05:47:27.127Z,69.95
2022-09-20T05:48:52.236Z,70.04
2022-09-20T05:50:26.826Z,69.96
2022-09-20T05:51:47.660Z,69.97
2022-09-20T05:53:14.497Z,69.86
2022-09-20T05:54:43.667Z,69.90
2022-09-20T05:56:03.147Z,70.00
2022-09-20T05:57:30.159Z,70.00
2022-09-20T05:58:35.113Z,70.09
2022-09-20T05:59:56.429Z,70.16
2022-09-20T06:01:04.566Z,70.11
2022-09-20T06:02:27.834Z,69.97
2022-09-20T06:03:47.419Z,70.14
2022-09-20T06:05:01.779Z,70.10
2022-09-20T06:06:06.882Z,69.97
2022-09-20T06:07:32.131Z,70.00
2022-09-20T06:08:58.080Z,70.10
2022-09-20T06:10:31.541Z,70.06
2022-09-20T06:11:45.739Z,70.24
2022-09-20T06:12:53.939Z,69.94
2022-09-20T06:14:05.307Z,70.06
2022-09-20T06:15:29.229Z,69.98
2022-09-20T06:16:35.323Z,70.00
2022-09-20T06:17:43.795Z,69.83
2022-09-20T06:18:54.707Z,69.84
2022-09-20T06:20:22.626Z,69.95
2022-09-20T06:21:50.738Z,69.92
2022-09-20T06:22:56.753Z,69.76
2022-09-20T06:24:00.845Z,69.96
2022-09-20T06:25:09.007Z,70.03
2022-09-20T06:26:18.091Z,70.00
2022-09-20T06:27:29.125Z,69.87
2022-09-20T06:28:37.185Z,69.88
2022-09-20T06:29:44.167Z,70.14
2022-09-20T06:30:54.969Z,69.94
2022-09-20T06:31:57.273Z,70.01
2022-09-20T06:33:20.966Z,69.95
2022-09-20T06:34:23.497Z,69.82
2022-09-20T06:35:35.674Z,69.78
2022-09-20T06:36:59.748Z,69.78
2022-09-20T06:38:45.845Z,69.85
2022-09-20T06:40:50.284Z,69.84
2022-09-20T06:41:53.806Z,69.65
2022-09-20T06:42:56.120Z,69.76
2022-09-20T06:44:00.986Z,69.80
2022-09-20T06:45:03.441Z,69.76
2022-09-20T06:46:05.985Z,69.69
2022-09-20T06:47:11.791Z,69.59
2022-09-20T06:48:15.642Z,69.57
2022-09-20T06:49:18.142Z,69.64
2022-09-20T06:50:20.504Z,69.73
2022-09-20T06:51:24.641Z,69.49
2022-09-20T06:52:26.925Z,69.47
2022-09-20T06:53:32.828Z,69.34
2022-09-20T06:54:35.101Z,69.39
2022-09-20T06:55:41.023Z,69.26
2022-09-20T06:56:45.628Z,69.35
2022-09-20T06:57:47.779Z,69.14
2022-09-20T06:58:50.076Z,69.13
2022-09-20T06:59:52.507Z,69.14
2022-09-20T07:00:54.837Z,69.10
2022-09-20T07:01:57.904Z,69.04
2022-09-20T07:03:00.148Z,68.84
2022-09-20T07:04:04.216Z,68.99
2022-09-20T07:05:08.097Z,68.71
2022-09-20T07:06:10.936Z,68.71
2022-09-20T07:07:18.159Z,68.42
2022-09-20T07:08:20.389Z,68.50
2022-09-20T07:09:22.631Z,68.50
2022-09-20T07:10:28.274Z,68.50
2022-09-20T07:11:35.036Z,68.25
2022-09-20T07:12:37.691Z,68.22
2022-09-20T07:13:39.827Z,68.18
2022-09-20T07:14:43.165Z,68.32
2022-09-20T07:15:45.383Z,68.27
2022-09-20T07:16:47.530Z,68.12
2022-09-20T07:17:51.146Z,67.86
2022-09-20T07:18:54.512Z,68.00
2022-09-20T07:19:57.249Z,67.69
2022-09-20T07:21:01.153Z,67.83
2022-09-20T07:22:03.663Z,67.55
2022-09-20T07:23:05.904Z,67.57
2022-09-20T07:24:08.066Z,67.33
2022-09-20T07:25:10.221Z,67.38
2022-09-20T07:26:35.243Z,67.59
2022-09-20T07:27:37.421Z,67.58
2022-09-20T07:28:39.539Z,67.53
2022-09-20T07:29:41.665Z,67.59
2022-09-20T07:30:44.275Z,67.39
2022-09-20T07:31:46.495Z,67.26
2022-09-20T07:32:48.877Z,67.31
2022-09-20T07:33:51.578Z,67.25
2022-09-20T07:34:54.103Z,67.03
2022-09-20T07:35:56.443Z,67.14
2022-09-20T07:37:00.039Z,66.96
2022-09-20T07:38:03.152Z,66.97
2022-09-20T07:39:05.352Z,66.80
2022-09-20T07:40:09.562Z,66.83
2022-09-20T07:41:11.768Z,66.34
2022-09-20T07:42:14.437Z,66.45
2022-09-20T07:43:16.579Z,66.25
2022-09-20T07:44:24.409Z,66.09
2022-09-20T07:45:26.646Z,66.29
2022-09-20T07:46:28.788Z,66.07
2022-09-20T07:47:35.489Z,66.16
2022-09-20T07:48:38.254Z,65.95
2022-09-20T07:49:40.596Z,65.95
2022-09-20T07:50:51.060Z,65.79
2022-09-20T07:51:54.573Z,65.71
2022-09-20T07:52:57.550Z,65.71
2022-09-20T07:53:59.702Z,65.69
2022-09-20T07:55:02.529Z,65.47
2022-09-20T07:56:14.243Z,65.13
2022-09-20T07:57:17.031Z,65.15
2022-09-20T07:58:19.172Z,65.12
2022-09-20T07:59:22.378Z,64.93
2022-09-20T08:00:24.625Z,64.98
2022-09-20T08:01:26.892Z,65.14
2022-09-20T08:02:29.197Z,65.27
2022-09-20T08:03:33.174Z,65.17
2022-09-20T08:04:35.370Z,65.04
2022-09-20T08:05:37.524Z,64.98
2022-09-20T08:06:42.446Z,65.12
2022-09-20T08:07:44.588Z,65.10
2022-09-20T08:08:47.455Z,65.21
2022-09-20T08:09:49.687Z,65.14
2022-09-20T08:10:51.874Z,65.08
2022-09-20T08:11:54.539Z,65.01
2022-09-20T08:14:19.179Z,64.88
2022-09-20T08:15:21.527Z,64.68
2022-09-20T08:16:24.137Z,64.47
2022-09-20T08:17:26.337Z,64.29
2022-09-20T08:18:28.496Z,64.51
2022-09-20T08:19:30.689Z,64.67
2022-09-20T08:20:37.145Z,64.39
2022-09-20T08:21:39.922Z,64.38
2022-09-20T08:22:43.418Z,64.44
2022-09-20T08:23:48.411Z,64.21
2022-09-20T08:24:52.023Z,64.02
2022-09-20T08:25:57.237Z,63.59
2022-09-20T08:26:59.358Z,63.76
2022-09-20T08:28:01.835Z,63.68
2022-09-20T08:29:05.879Z,63.63
2022-09-20T08:30:09.227Z,63.32
2022-09-20T08:31:17.008Z,62.90
2022-09-20T08:32:19.201Z,63.04
2022-09-20T08:33:21.444Z,63.02
2022-09-20T08:34:24.218Z,63.29
2022-09-20T08:35:29.612Z,63.42
2022-09-20T08:36:36.353Z,63.39
2022-09-20T08:37:39.349Z,63.39
2022-09-20T08:40:04.789Z,62.97
2022-09-20T08:41:11.915Z,62.63
2022-09-20T08:42:40.353Z,62.75
2022-09-20T08:43:58.340Z,62.51
2022-09-20T08:45:07.613Z,62.62
2022-09-20T08:46:15.081Z,62.57
2022-09-20T08:47:36.864Z,62.54
2022-09-20T08:48:39.702Z,62.74
2022-09-20T08:49:46.041Z,63.01
2022-09-20T08:50:49.618Z,63.10
2022-09-20T08:51:52.767Z,63.08
2022-09-20T08:53:00.659Z,63.05
2022-09-20T08:54:04.825Z,63.28
2022-09-20T08:55:20.220Z,63.36
2022-09-20T08:56:22.991Z,63.21
2022-09-20T08:57:28.792Z,63.47
2022-09-20T08:58:30.973Z,63.48
2022-09-20T08:59:33.649Z,63.61
2022-09-20T09:00:37.820Z,63.81
2022-09-20T09:01:39.982Z,63.90
2022-09-20T09:02:42.160Z,63.92
2022-09-20T09:03:44.338Z,64.18
2022-09-20T09:04:51.677Z,64.29
2022-09-20T09:05:56.091Z,64.34
2022-09-20T09:06:58.426Z,64.35
2022-09-20T09:08:05.055Z,64.39
2022-09-20T09:09:07.911Z,64.42
2022-09-20T09:10:10.266Z,64.48
2022-09-20T09:11:23.536Z,64.15
2022-09-20T09:12:35.750Z,64.41
2022-09-20T09:14:05.193Z,64.49
2022-09-20T09:15:26.568Z,64.45
2022-09-20T09:16:35.272Z,64.18
2022-09-20T09:17:40.557Z,64.43
2022-09-20T09:18:45.075Z,64.17
2022-09-20T09:19:56.159Z,64.17
2022-09-20T09:20:59.400Z,64.08
2022-09-20T09:22:04.540Z,63.81
2022-09-20T09:23:09.290Z,63.62
2022-09-20T09:24:19.419Z,63.48
2022-09-20T09:25:25.501Z,63.48
2022-09-20T09:26:28.747Z,63.41
2022-09-20T09:27:30.918Z,63.57
2022-09-20T09:28:36.999Z,63.66
2022-09-20T09:29:49.872Z,63.50
2022-09-20T09:30:52.117Z,63.51
2022-09-20T09:31:57.199Z,63.43
2022-09-20T09:33:14.601Z,63.49
2022-09-20T09:34:28.540Z,63.22
2022-09-20T09:35:31.911Z,63.10
2022-09-20T09:36:43.981Z,63.21
2022-09-20T09:38:19.673Z,63.34
2022-09-20T09:39:24.281Z,63.47
2022-09-20T09:40:29.770Z,63.59
2022-09-20T09:41:35.759Z,63.81
2022-09-20T09:42:55.838Z,64.07
2022-09-20T09:44:10.077Z,63.88
2022-09-20T09:45:27.127Z,63.88
2022-09-20T09:46:36.286Z,64.07
2022-09-20T09:47:38.691Z,64.03
2022-09-20T09:48:40.916Z,63.76
2022-09-20T09:50:03.800Z,63.52
2022-09-20T09:51:10.536Z,63.57
2022-09-20T09:52:15.839Z,63.27
2022-09-20T09:53:24.895Z,63.44
2022-09-20T09:54:29.561Z,63.20
2022-09-20T09:55:55.935Z,62.99
2022-09-20T09:57:23.478Z,62.68
2022-09-20T09:58:59.113Z,62.86
2022-09-20T10:00:17.802Z,62.69
2022-09-20T10:01:36.405Z,62.55
2022-09-20T10:02:55.715Z,62.44
2022-09-20T10:04:10.785Z,62.25
2022-09-20T10:05:15.686Z,61.97
2022-09-20T10:06:39.236Z,62.14
2022-09-20T10:07:45.799Z,61.76
2022-09-20T10:09:34.056Z,61.85
2022-09-20T10:11:04.358Z,61.76
2022-09-20T10:12:30.259Z,61.63
2022-09-20T10:13:57.847Z,61.88
2022-09-20T10:15:15.409Z,61.96
2022-09-20T10:16:29.324Z,62.07
2022-09-20T10:17:49.650Z,61.77
2022-09-20T10:19:22.836Z,61.83
2022-09-20T10:20:36.880Z,61.43
2022-09-20T10:22:08.344Z,61.47
2022-09-20T10:24:03.703Z,61.34
2022-09-20T10:25:15.661Z,61.03
2022-09-20T10:26:39.588Z,60.87
2022-09-20T10:28:02.343Z,60.53
2022-09-20T10:29:04.431Z,60.42
2022-09-20T10:30:18.769Z,60.48
2022-09-20T10:31:37.974Z,60.32
2022-09-20T10:33:05.561Z,60.37
2022-09-20T10:34:43.609Z,59.78
2022-09-20T10:36:04.762Z,59.58
2022-09-20T10:37:24.207Z,59.24
2022-09-20T10:38:43.685Z,59.29
2022-09-20T10:39:55.464Z,59.14
2022-09-20T10:41:45.245Z,59.13
2022-09-20T10:43:12.074Z,59.40
2022-09-20T10:44:20.045Z,58.94
2022-09-20T10:47:20.440Z,58.75
2022-09-20T10:48:31.881Z,58.43
2022-09-20T10:51:24.390Z,57.92
2022-09-20T10:52:37.886Z,57.33
2022-09-20T10:54:11.351Z,57.51
2022-09-20T10:55:29.007Z,56.65
2022-09-20T10:56:36.980Z,56.41
2022-09-20T10:57:54.722Z,56.54
2022-09-20T10:59:28.583Z,56.06
2022-09-20T11:00:50.875Z,55.91
2022-09-20T11:02:26.706Z,55.90
2022-09-20T11:03:29.758Z,56.17
2022-09-20T11:04:50.257Z,55.84
2022-09-20T11:06:22.582Z,55.35
2022-09-20T11:08:01.272Z,55.41
2022-09-20T11:09:13.862Z,55.38
2022-09-20T11:10:20.689Z,55.62
2022-09-20T11:11:31.184Z,55.27
2022-09-20T11:12:51.405Z,55.22
2022-09-20T11:14:12.706Z,55.51
2022-09-20T11:15:21.444Z,55.51
2022-09-20T11:16:32.170Z,55.34
2022-09-20T11:17:52.832Z,55.46
2022-09-20T11:18:59.346Z,54.91
2022-09-20T11:20:25.950Z,54.89
2022-09-20T11:21:47.079Z,55.03
2022-09-20T11:22:56.819Z,54.56
2022-09-20T11:24:01.823Z,54.39
2022-09-20T11:25:16.758Z,54.45
2022-09-20T11:26:32.138Z,54.54
2022-09-20T11:27:49.711Z,54.25
2022-09-20T11:29:08.841Z,53.73
2022-09-20T11:30:19.010Z,53.32
2022-09-20T11:31:35.720Z,53.52
2022-09-20T11:33:00.613Z,53.85
2022-09-20T11:34:12.478Z,53.28
2022-09-20T11:36:00.589Z,53.60
2022-09-20T11:37:03.592Z,53.33
2022-09-20T11:38:15.753Z,53.83
2022-09-20T11:39:21.077Z,53.89
2022-09-20T11:40:28.624Z,53.25
2022-09-20T11:41:31.880Z,53.34
2022-09-20T11:42:37.074Z,53.22
2022-09-20T11:43:42.869Z,53.50
2022-09-20T11:44:47.875Z,53.30
2022-09-20T11:45:55.613Z,53.18
2022-09-20T11:47:11.749Z,53.30
2022-09-20T11:48:26.413Z,53.32
2022-09-20T11:49:39.679Z,52.94
2022-09-20T11:50:57.308Z,52.66
2022-09-20T11:52:21.357Z,52.64
2022-09-20T11:54:03.100Z,52.52
2022-09-20T11:55:28.149Z,52.14
2022-09-20T11:56:32.631Z,52.38
2022-09-20T11:57:34.932Z,52.31
2022-09-20T11:58:48.907Z,52.39
2022-09-20T12:00:02.895Z,52.72
2022-09-20T12:01:17.457Z,52.50
2022-09-20T12:02:45.257Z,53.12
2022-09-20T12:04:04.259Z,52.28
2022-09-20T12:05:42.047Z,52.26
2022-09-20T12:06:45.377Z,50.72
2022-09-20T12:07:53.872Z,49.70
2022-09-20T12:08:58.693Z,49.78
2022-09-20T12:10:08.576Z,49.15
2022-09-20T12:11:16.159Z,49.11
2022-09-20T12:12:48.288Z,49.53
2022-09-20T12:14:05.137Z,49.38
2022-09-20T12:15:27.504Z,49.34
2022-09-20T12:16:42.576Z,48.90
2022-09-20T12:17:48.249Z,48.76
2022-09-20T12:18:54.069Z,48.97
2022-09-20T12:19:56.225Z,49.26
2022-09-20T12:21:06.051Z,49.34
2022-09-20T12:22:08.201Z,49.73
2022-09-20T12:23:41.325Z,50.26
2022-09-20T12:24:46.843Z,49.86
2022-09-20T12:26:06.122Z,50.17
2022-09-20T12:27:44.009Z,50.59
2022-09-20T12:28:50.063Z,50.07
2022-09-20T12:30:03.419Z,50.26
2022-09-20T12:31:29.637Z,50.75
2022-09-20T12:33:18.426Z,51.24
2022-09-20T12:34:20.624Z,50.84
2022-09-20T12:35:39.172Z,51.39
2022-09-20T12:36:53.533Z,51.39
2022-09-20T12:37:58.273Z,51.29
2022-09-20T12:39:05.360Z,51.21
2022-09-20T12:40:16.443Z,50.85
2022-09-20T12:41:28.143Z,51.08
2022-09-20T12:42:33.220Z,51.19
2022-09-20T12:43:46.727Z,51.65
2022-09-20T12:44:51.866Z,51.62
2022-09-20T12:45:59.884Z,51.69
2022-09-20T12:47:08.514Z,52.07
2022-09-20T12:48:19.898Z,52.26
2022-09-20T12:49:53.240Z,52.66
2022-09-20T12:51:36.717Z,52.82
2022-09-20T12:52:50.796Z,52.72
2022-09-20T12:54:02.645Z,52.84
2022-09-20T12:55:10.253Z,52.68
2022-09-20T12:56:19.985Z,52.94
2022-09-20T12:57:32.435Z,52.92
2022-09-20T12:58:45.318Z,52.96
2022-09-20T12:59:56.609Z,52.60
2022-09-20T13:01:04.985Z,52.77
2022-09-20T13:02:42.792Z,52.61
2022-09-20T13:03:48.932Z,52.31
2022-09-20T13:04:55.527Z,52.48
2022-09-20T13:06:06.804Z,52.22
2022-09-20T13:07:43.343Z,52.37
2022-09-20T13:08:52.136Z,52.00
2022-09-20T13:09:54.728Z,52.25
2022-09-20T13:11:28.142Z,52.48
2022-09-20T13:12:30.706Z,52.51
2022-09-20T13:13:44.247Z,52.70
2022-09-20T13:14:47.567Z,52.79
2022-09-20T13:15:54.492Z,52.87
2022-09-20T13:17:01.364Z,52.96
2022-09-20T13:18:05.748Z,52.81
2022-09-20T13:19:31.593Z,52.94
2022-09-20T13:20:35.299Z,52.76
2022-09-20T13:21:40.752Z,52.56
2022-09-20T13:22:45.507Z,52.27
2022-09-20T13:23:55.236Z,51.66
2022-09-20T13:25:02.137Z,51.32
2022-09-20T13:26:09.499Z,51.18
2022-09-20T13:27:38.060Z,51.00
2022-09-20T13:28:49.639Z,50.22
2022-09-20T13:29:53.441Z,49.56
2022-09-20T13:31:20.571Z,50.15
2022-09-20T13:32:26.912Z,49.86
2022-09-20T13:33:29.071Z,50.07
2022-09-20T13:34:31.598Z,49.65
2022-09-20T13:35:34.236Z,49.37
2022-09-20T13:36:39.252Z,49.08
2022-09-20T13:37:53.780Z,49.65
2022-09-20T13:38:57.816Z,48.98
2022-09-20T13:40:00.441Z,48.88
2022-09-20T13:41:10.589Z,48.06
2022-09-20T13:42:19.430Z,47.46
2022-09-20T13:43:29.734Z,47.08
2022-09-20T13:44:36.998Z,47.61
2022-09-20T13:45:42.595Z,46.99
2022-09-20T13:46:45.791Z,46.91
2022-09-20T13:47:51.679Z,46.52
2022-09-20T13:49:17.606Z,47.28
2022-09-20T13:50:24.075Z,46.52
2022-09-20T13:51:28.069Z,46.47
2022-09-20T13:52:31.859Z,44.96
2022-09-20T13:53:43.001Z,44.51
2022-09-20T13:54:47.166Z,43.65
2022-09-20T13:55:49.469Z,44.08
2022-09-20T13:56:52.382Z,44.14
2022-09-20T13:57:57.579Z,43.70
2022-09-20T13:59:05.506Z,43.42
2022-09-20T14:00:13.657Z,43.88
2022-09-20T14:01:31.142Z,44.38
2022-09-20T14:02:34.394Z,43.83
2022-09-20T14:03:36.747Z,44.48
2022-09-20T14:04:39.406Z,44.38
2022-09-20T14:05:47.258Z,45.03
2022-09-20T14:06:53.660Z,45.30
2022-09-20T14:07:57.677Z,45.42
2022-09-20T14:09:07.083Z,45.69
2022-09-20T14:10:28.913Z,46.30
2022-09-20T14:11:33.796Z,46.24
2022-09-20T14:12:36.664Z,46.41
2022-09-20T14:13:42.829Z,46.89
2022-09-20T14:14:46.600Z,46.94
2022-09-20T14:15:49.794Z,47.27
2022-09-20T14:16:56.953Z,47.46
2022-09-20T14:18:04.854Z,47.99
2022-09-20T14:19:08.356Z,48.06
2022-09-20T14:20:15.566Z,48.49
2022-09-20T14:21:24.644Z,48.60
2022-09-20T14:22:28.786Z,48.65
2022-09-20T14:23:31.700Z,48.98
2022-09-20T14:24:38.417Z,49.42
2022-09-20T14:25:40.994Z,49.86
2022-09-20T14:27:01.120Z,49.98
2022-09-20T14:28:19.863Z,50.38
2022-09-20T14:29:34.330Z,50.69
2022-09-20T14:30:37.232Z,50.79
2022-09-20T14:31:50.223Z,51.02
2022-09-20T14:32:56.322Z,51.33
2022-09-20T14:34:01.516Z,51.51
2022-09-20T14:35:15.462Z,51.77
2022-09-20T14:36:23.557Z,52.12
2022-09-20T14:38:10.339Z,52.48
2022-09-20T14:39:16.639Z,52.77
2022-09-20T14:40:40.531Z,53.00
2022-09-20T14:41:43.736Z,53.07
2022-09-20T14:42:47.964Z,53.03
2022-09-20T14:43:56.698Z,52.98
2022-09-20T14:44:59.954Z,53.29
2022-09-20T14:46:05.167Z,53.21
2022-09-20T14:47:15.430Z,53.54
2022-09-20T14:48:17.524Z,53.78
2022-09-20T14:49:33.764Z,54.13
2022-09-20T14:50:37.872Z,54.36
2022-09-20T14:51:40.165Z,54.34
2022-09-20T14:52:45.455Z,54.44
2022-09-20T14:54:05.955Z,54.51
2022-09-20T14:55:14.068Z,54.43
2022-09-20T14:56:25.922Z,54.64
2022-09-20T14:57:28.944Z,54.80
2022-09-20T14:58:31.723Z,54.80
2022-09-20T14:59:42.095Z,55.19
2022-09-20T15:01:23.358Z,55.18
2022-09-20T15:02:25.980Z,55.22
2022-09-20T15:03:40.676Z,55.16
2022-09-20T15:04:54.434Z,55.25
2022-09-20T15:05:56.889Z,55.51
2022-09-20T15:07:05.180Z,55.51
2022-09-20T15:08:15.388Z,55.62
2022-09-20T15:09:19.904Z,55.71
2022-09-20T15:10:22.569Z,55.80
2022-09-20T15:11:24.752Z,55.93
2022-09-20T15:12:26.898Z,55.92
2022-09-20T15:13:29.092Z,56.04
2022-09-20T15:14:36.530Z,55.86
2022-09-20T15:15:40.014Z,56.10
2022-09-20T15:16:45.348Z,56.28
2022-09-20T15:17:47.983Z,56.29
2022-09-20T15:18:50.103Z,56.47
2022-09-20T15:19:52.278Z,56.28
2022-09-20T15:20:55.144Z,56.29
2022-09-20T15:21:58.782Z,56.66
2022-09-20T15:23:02.051Z,56.72
2022-09-20T15:24:04.418Z,56.91
2022-09-20T15:25:06.981Z,56.80
2022-09-20T15:26:11.365Z,56.63
2022-09-20T15:27:13.713Z,56.92
2022-09-20T15:28:17.580Z,56.58
2022-09-20T15:29:19.903Z,56.49
2022-09-20T15:30:22.515Z,56.64
2022-09-20T15:31:24.726Z,56.60
2022-09-20T15:32:27.678Z,56.87
2022-09-20T15:33:32.595Z,57.25
2022-09-20T15:34:34.870Z,57.23
2022-09-20T15:35:37.930Z,57.37
2022-09-20T15:36:41.823Z,57.28
2022-09-20T15:37:44.587Z,57.37
2022-09-20T15:38:46.722Z,57.37
2022-09-20T15:39:49.693Z,57.22
2022-09-20T15:40:51.867Z,57.30
2022-09-20T15:41:54.334Z,57.42
2022-09-20T15:42:58.240Z,57.57
2022-09-20T15:44:01.703Z,57.36
2022-09-20T15:45:07.409Z,57.50
2022-09-20T15:46:21.243Z,57.26
2022-09-20T15:47:23.465Z,57.23
2022-09-20T15:48:27.902Z,57.42
2022-09-20T15:49:31.219Z,57.42
2022-09-20T15:50:33.369Z,57.29